Time;durP1;ratioP1;P1;durP2;ratioP2;P2;SDS_P1;SDS_P2;PMS_P1;PMS_P2;Temp;Humidity;BMP_temperature;BMP_pressure;BME280_temperature;BME280_humidity;BME280_pressure;Samples;Min_cycle;Max_cycle;Signal;HPM_P1;HPM_P2
2022/09/23 00:01:09;;;;;;;15.23;12.55;;;13.10;99.90;;;;;;4972350;28;98335;-73
2022/09/23 00:03:44;;;;;;;12.82;11.23;;;13.10;99.90;;;;;;4974484;28;96599;-73
2022/09/23 00:06:19;;;;;;;13.88;12.38;;;13.00;99.90;;;;;;4974093;28;92448;-73
2022/09/23 00:08:48;;;;;;;13.50;12.20;;;13.00;99.90;;;;;;4975195;28;92472;-73
2022/09/23 00:11:21;;;;;;;14.05;11.93;;;13.00;99.90;;;;;;4974479;28;93294;-74
2022/09/23 00:13:50;;;;;;;12.88;11.68;;;13.00;99.90;;;;;;4974716;28;93065;-73
2022/09/23 00:16:20;;;;;;;13.88;12.23;;;12.90;99.90;;;;;;4957081;28;92497;-74
2022/09/23 00:18:49;;;;;;;13.18;11.98;;;12.90;99.90;;;;;;4975057;28;91750;-73
2022/09/23 00:21:18;;;;;;;14.48;11.90;;;12.90;99.90;;;;;;4974629;28;93565;-73
2022/09/23 00:23:45;;;;;;;13.68;12.18;;;12.90;99.90;;;;;;4989415;28;101555;-73
2022/09/23 00:26:14;;;;;;;14.02;12.63;;;12.90;99.90;;;;;;4972578;28;95447;-73
2022/09/23 00:28:42;;;;;;;13.27;12.02;;;12.80;99.90;;;;;;4989381;28;92526;-74
2022/09/23 00:31:18;;;;;;;13.30;11.95;;;12.80;99.90;;;;;;4974541;28;93280;-74
2022/09/23 00:33:45;;;;;;;14.65;13.18;;;12.80;99.90;;;;;;4974859;28;93065;-73
2022/09/23 00:36:14;;;;;;;15.35;12.93;;;12.80;99.90;;;;;;4973428;28;92409;-73
2022/09/23 00:38:43;;;;;;;12.55;11.45;;;12.80;99.90;;;;;;4974447;28;92440;-73
2022/09/23 00:41:10;;;;;;;14.65;11.60;;;12.70;99.90;;;;;;4989653;28;94268;-73
2022/09/23 00:43:40;;;;;;;13.15;12.02;;;12.70;99.90;;;;;;4974831;28;92989;-73
2022/09/23 00:50:25;;;;;;;12.48;11.38;;;12.70;99.90;;;;;;4977460;28;92654;-73
2022/09/23 00:52:55;;;;;;;13.73;11.32;;;12.50;99.90;;;;;;4976883;28;95733;-73
2022/09/23 00:55:27;;;;;;;13.00;11.85;;;12.50;99.90;;;;;;4976645;28;95548;-73
2022/09/23 00:57:57;;;;;;;12.93;11.77;;;12.50;99.90;;;;;;4977946;28;92403;-73
2022/09/23 01:00:24;;;;;;;12.82;11.65;;;12.50;99.90;;;;;;4977698;28;92513;-73
2022/09/23 01:02:52;;;;;;;12.82;11.73;;;12.50;99.90;;;;;;4960040;28;96089;-73
2022/09/23 01:05:19;;;;;;;13.45;12.15;;;12.50;99.90;;;;;;4959945;28;93200;-73
2022/09/23 01:07:47;;;;;;;13.07;11.77;;;12.50;99.90;;;;;;4976483;28;92482;-73
2022/09/23 01:10:15;;;;;;;12.73;11.63;;;12.50;99.90;;;;;;4960274;28;91884;-73
2022/09/23 01:13:11;;;;;;;13.18;11.90;;;12.50;99.90;;;;;;4992594;28;96021;-73
2022/09/23 01:15:48;;;;;;;12.77;11.68;;;12.50;99.90;;;;;;4977508;28;92957;-74
2022/09/23 01:18:33;;;;;;;13.00;11.77;;;12.40;99.90;;;;;;4974488;28;97830;-73
2022/09/23 01:21:08;;;;;;;13.02;11.85;;;12.30;99.90;;;;;;4977539;28;92512;-74
2022/09/23 01:23:41;;;;;;;14.13;12.38;;;12.40;99.90;;;;;;4977261;28;92473;-73
2022/09/23 01:26:27;;;;;;;16.07;13.07;;;12.40;99.90;;;;;;4977150;28;93116;-73
2022/09/23 01:29:19;;;;;;;12.65;11.40;;;12.30;99.90;;;;;;4992647;28;92451;-73
2022/09/23 01:32:30;;;;;;;15.60;10.88;;;12.30;99.90;;;;;;4975940;28;92953;-73
2022/09/23 01:35:16;;;;;;;11.43;10.43;;;12.30;99.90;;;;;;4992258;28;93812;-73
2022/09/23 01:37:52;;;;;;;11.82;10.82;;;12.20;99.90;;;;;;4977276;28;93022;-73
2022/09/23 01:40:41;;;;;;;11.98;10.95;;;12.20;99.90;;;;;;4975457;28;92551;-73
2022/09/23 01:43:27;;;;;;;11.82;10.80;;;12.30;99.90;;;;;;4992123;28;92403;-73
2022/09/23 01:45:58;;;;;;;11.73;10.55;;;12.30;99.90;;;;;;4974285;28;98512;-73
2022/09/23 01:48:39;;;;;;;12.38;11.38;;;12.20;99.90;;;;;;4976489;28;95533;-73
2022/09/23 01:51:44;;;;;;;12.25;11.20;;;12.30;99.90;;;;;;4992065;28;92563;-73
2022/09/23 01:54:24;;;;;;;12.85;11.70;;;12.20;99.90;;;;;;4954872;28;92596;-73
2022/09/23 01:56:57;;;;;;;12.23;11.13;;;12.20;99.90;;;;;;4954090;28;93159;-73
2022/09/23 01:59:34;;;;;;;13.73;12.52;;;12.20;99.90;;;;;;4959403;28;93078;-73
2022/09/23 02:02:14;;;;;;;13.43;11.90;;;12.20;99.90;;;;;;4975443;28;92971;-73
2022/09/23 02:04:44;;;;;;;12.93;11.82;;;12.20;99.90;;;;;;4992356;28;91833;-73
2022/09/23 02:07:24;;;;;;;12.38;11.18;;;12.10;99.90;;;;;;4991619;28;93273;-73
2022/09/23 02:10:01;;;;;;;12.15;11.05;;;12.20;99.90;;;;;;4976745;28;93065;-73
2022/09/23 02:12:32;;;;;;;13.75;12.50;;;12.20;99.90;;;;;;4990573;28;94860;-73
2022/09/23 02:15:04;;;;;;;12.23;11.07;;;12.10;99.90;;;;;;4975677;28;92439;-73
2022/09/23 02:17:58;;;;;;;13.40;12.20;;;12.10;99.90;;;;;;4974551;28;95896;-73
2022/09/23 02:20:31;;;;;;;13.43;12.18;;;12.20;99.90;;;;;;4958566;28;96003;-73
2022/09/23 02:23:00;;;;;;;12.15;11.02;;;12.10;99.90;;;;;;4976376;28;92626;-73
2022/09/23 02:25:39;;;;;;;12.20;11.20;;;12.10;99.90;;;;;;4974851;28;92602;-73
2022/09/23 02:28:13;;;;;;;12.60;11.40;;;12.10;99.90;;;;;;4976295;28;93359;-73
2022/09/23 02:30:47;;;;;;;10.98;10.07;;;12.10;99.90;;;;;;4976594;28;93056;-73
2022/09/23 02:33:25;;;;;;;11.70;10.63;;;12.10;99.90;;;;;;4976280;28;92337;-73
2022/09/23 02:36:07;;;;;;;11.32;10.25;;;12.10;99.90;;;;;;4958486;28;92421;-73
2022/09/23 02:38:41;;;;;;;12.32;11.23;;;12.10;99.90;;;;;;4974640;28;95595;-73
2022/09/23 02:41:08;;;;;;;12.30;11.20;;;12.00;99.90;;;;;;4976568;28;95519;-73
2022/09/23 02:43:53;;;;;;;12.85;11.52;;;12.00;99.90;;;;;;4974287;28;100263;-73
2022/09/23 02:46:21;;;;;;;12.43;11.27;;;12.00;99.90;;;;;;4974733;28;92389;-73
2022/09/23 02:48:55;;;;;;;11.85;10.65;;;12.00;99.90;;;;;;4974277;28;96499;-73
2022/09/23 02:51:27;;;;;;;12.52;10.90;;;12.00;99.90;;;;;;4990699;28;95528;-73
2022/09/23 02:53:56;;;;;;;12.70;11.55;;;12.00;99.90;;;;;;4958484;28;92364;-73
2022/09/23 02:56:23;;;;;;;11.88;10.82;;;12.00;99.90;;;;;;4975977;28;95966;-73
2022/09/23 02:58:53;;;;;;;13.18;11.88;;;11.90;99.90;;;;;;4991330;28;93339;-73
2022/09/23 03:01:37;;;;;;;13.05;12.05;;;11.90;99.90;;;;;;4973961;28;93054;-73
2022/09/23 03:04:20;;;;;;;13.35;12.25;;;11.90;99.90;;;;;;4974740;28;94741;-73
2022/09/23 03:07:11;;;;;;;13.18;11.98;;;11.90;99.90;;;;;;4991088;28;92418;-73
2022/09/23 03:10:06;;;;;;;13.30;12.00;;;11.90;99.90;;;;;;4975545;28;93426;-73
2022/09/23 03:13:05;;;;;;;;;;;11.80;99.90;;;;;;4976104;28;93147;-73
2022/09/23 03:15:45;;;;;;;11.90;10.75;;;11.60;99.90;;;;;;4944034;28;92583;-73
2022/09/23 03:18:20;;;;;;;13.35;12.23;;;11.60;99.90;;;;;;4990452;28;92554;-73
2022/09/23 03:30:03;;;;;;;12.30;11.30;;;11.50;99.90;;;;;;4974527;28;92556;-73
2022/09/23 03:32:31;;;;;;;12.35;11.02;;;11.30;99.90;;;;;;4990510;28;92476;-73
2022/09/23 03:35:00;;;;;;;15.30;12.43;;;11.40;99.90;;;;;;4972479;28;99808;-73
2022/09/23 03:37:56;;;;;;;13.20;12.10;;;11.30;99.90;;;;;;4990202;28;97378;-73
2022/09/23 03:40:28;;;;;;;14.15;12.85;;;11.30;99.90;;;;;;4957856;28;94236;-73
2022/09/23 03:42:57;;;;;;;13.23;12.00;;;11.30;99.90;;;;;;4974296;28;92481;-73
2022/09/23 03:45:28;;;;;;;12.32;11.32;;;11.30;99.90;;;;;;4975097;28;93297;-73
2022/09/23 03:47:55;;;;;;;14.52;10.95;;;11.30;99.90;;;;;;4990255;28;94118;-73
2022/09/23 03:50:23;;;;;;;13.23;12.05;;;11.20;99.90;;;;;;4990406;28;92376;-73
2022/09/23 03:52:50;;;;;;;13.63;12.35;;;11.20;99.90;;;;;;4990965;28;92238;-73
2022/09/23 03:55:18;;;;;;;13.77;12.38;;;11.20;99.90;;;;;;4975253;28;93309;-73
2022/09/23 03:57:45;;;;;;;14.07;12.77;;;11.20;99.90;;;;;;4974618;28;93216;-73
2022/09/23 04:00:13;;;;;;;12.93;11.82;;;11.20;99.90;;;;;;4972817;28;94975;-73
2022/09/23 04:02:40;;;;;;;12.88;11.68;;;11.20;99.90;;;;;;4973727;28;92467;-73
2022/09/23 04:05:09;;;;;;;13.43;11.85;;;11.10;99.90;;;;;;4975020;28;92540;-73
2022/09/23 04:07:36;;;;;;;13.77;12.32;;;11.10;99.90;;;;;;4973519;28;94075;-73
2022/09/23 04:10:04;;;;;;;13.85;12.45;;;11.10;99.90;;;;;;4974330;28;108327;-73
2022/09/23 04:12:31;;;;;;;14.32;12.93;;;11.10;99.90;;;;;;4974638;28;92722;-73
2022/09/23 04:14:58;;;;;;;13.40;12.10;;;11.00;99.90;;;;;;4975107;28;93308;-73
2022/09/23 04:17:25;;;;;;;13.63;12.23;;;11.00;99.90;;;;;;4990109;28;93106;-73
2022/09/23 04:19:52;;;;;;;13.50;12.23;;;11.00;99.90;;;;;;4977959;28;92372;-73
2022/09/23 04:22:20;;;;;;;12.25;11.07;;;11.00;99.90;;;;;;4978445;28;92707;-73
2022/09/23 04:24:47;;;;;;;13.55;12.27;;;11.00;99.90;;;;;;4976611;28;96127;-73
2022/09/23 04:27:14;;;;;;;13.50;12.35;;;11.00;99.90;;;;;;4960573;28;97960;-73
2022/09/23 04:29:41;;;;;;;12.35;11.30;;;10.90;99.90;;;;;;4977228;28;92731;-73
2022/09/23 04:32:09;;;;;;;13.85;12.52;;;10.90;99.90;;;;;;4978123;28;93366;-73
2022/09/23 04:34:36;;;;;;;14.02;12.15;;;10.90;99.90;;;;;;4978001;28;93261;-73
2022/09/23 04:37:02;;;;;;;13.32;11.57;;;10.90;99.90;;;;;;4978117;28;92957;-73
2022/09/23 04:39:29;;;;;;;12.45;11.25;;;10.90;99.90;;;;;;4960515;28;93140;-73
2022/09/23 04:41:56;;;;;;;14.70;11.98;;;10.90;99.90;;;;;;4977158;28;91738;-73
2022/09/23 04:44:23;;;;;;;12.98;11.73;;;10.90;99.90;;;;;;4977718;28;93192;-73
2022/09/23 04:46:50;;;;;;;13.43;12.23;;;10.90;99.90;;;;;;4960342;28;95421;-73
2022/09/23 04:49:17;;;;;;;14.15;12.75;;;10.90;99.90;;;;;;4959699;28;95399;-73
2022/09/23 04:51:44;;;;;;;13.18;11.80;;;10.90;99.90;;;;;;4993102;28;92555;-73
2022/09/23 04:54:13;;;;;;;13.70;12.50;;;10.80;99.90;;;;;;4976510;28;93182;-73
2022/09/23 04:56:41;;;;;;;14.27;12.75;;;10.80;99.90;;;;;;4976298;28;93079;-73
2022/09/23 04:59:08;;;;;;;13.50;12.38;;;10.80;99.90;;;;;;4976627;28;92625;-73
2022/09/23 05:01:35;;;;;;;14.23;12.68;;;10.80;99.90;;;;;;4977586;28;92592;-73
2022/09/23 05:04:08;;;;;;;14.00;12.70;;;10.80;99.90;;;;;;4977611;28;93087;-73
2022/09/23 05:06:36;;;;;;;12.77;11.57;;;10.80;99.90;;;;;;4976418;28;95826;-74
2022/09/23 05:09:06;;;;;;;15.68;11.75;;;10.80;99.90;;;;;;4977150;28;101559;-73
2022/09/23 05:11:34;;;;;;;13.23;12.13;;;10.80;99.90;;;;;;4977329;28;92440;-73
2022/09/23 05:14:01;;;;;;;13.82;12.50;;;10.80;99.90;;;;;;4976113;28;98130;-73
2022/09/23 05:16:28;;;;;;;14.00;12.75;;;10.80;99.90;;;;;;4977440;28;95457;-73
2022/09/23 05:18:56;;;;;;;13.73;11.93;;;10.80;99.90;;;;;;4977040;28;95767;-73
2022/09/23 05:21:26;;;;;;;13.73;12.48;;;10.90;99.90;;;;;;4977184;28;92420;-73
2022/09/23 05:23:55;;;;;;;13.50;12.27;;;10.80;99.90;;;;;;4976985;28;93052;-73
2022/09/23 05:26:24;;;;;;;15.77;11.85;;;10.90;99.90;;;;;;4975910;28;93085;-73
2022/09/23 05:28:52;;;;;;;14.50;13.00;;;10.90;99.90;;;;;;4977222;28;92477;-73
2022/09/23 05:31:22;;;;;;;13.18;11.98;;;10.90;99.90;;;;;;4976324;28;91697;-73
2022/09/23 05:33:51;;;;;;;13.20;11.90;;;10.90;99.90;;;;;;4976639;28;93362;-73
2022/09/23 05:36:20;;;;;;;13.85;12.43;;;10.90;99.90;;;;;;4975545;28;95473;-73
2022/09/23 05:38:49;;;;;;;16.73;12.38;;;10.90;99.90;;;;;;4975620;28;94772;-73
2022/09/23 05:41:18;;;;;;;13.52;12.27;;;10.90;99.90;;;;;;4976895;28;92440;-73
2022/09/23 05:43:46;;;;;;;12.98;11.80;;;10.90;99.90;;;;;;4976666;28;93250;-73
2022/09/23 05:46:27;;;;;;;13.48;12.18;;;10.90;99.90;;;;;;4976636;28;93115;-73
2022/09/23 05:48:56;;;;;;;14.27;11.75;;;10.90;99.90;;;;;;4975781;28;92383;-73
2022/09/23 05:51:27;;;;;;;13.55;12.35;;;10.90;99.90;;;;;;4975998;28;92528;-73
2022/09/23 05:53:57;;;;;;;13.27;12.07;;;10.90;99.90;;;;;;4975043;28;93003;-73
2022/09/23 05:56:26;;;;;;;13.57;12.15;;;10.90;99.90;;;;;;4977179;28;92961;-73
2022/09/23 05:58:56;;;;;;;12.75;11.45;;;10.90;99.90;;;;;;4975216;28;92777;-73
2022/09/23 06:01:26;;;;;;;12.63;11.38;;;10.90;99.90;;;;;;4976759;28;92778;-73
2022/09/23 06:03:55;;;;;;;12.77;11.13;;;11.00;99.90;;;;;;4974894;28;96687;-73
2022/09/23 06:06:31;;;;;;;12.88;11.68;;;11.00;99.90;;;;;;4991394;28;95486;-73
2022/09/23 06:08:58;;;;;;;13.32;10.82;;;11.10;99.90;;;;;;4974989;28;92479;-73
2022/09/23 06:11:28;;;;;;;11.85;10.75;;;11.10;99.90;;;;;;4976362;28;92584;-73
2022/09/23 06:14:02;;;;;;;12.63;11.52;;;11.10;99.90;;;;;;4991390;28;95602;-73
2022/09/23 06:16:32;;;;;;;12.95;11.75;;;11.20;99.90;;;;;;4959527;28;96187;-73
2022/09/23 06:19:04;;;;;;;12.23;11.07;;;11.30;99.90;;;;;;4975788;28;92543;-73
2022/09/23 06:21:34;;;;;;;11.82;10.73;;;11.30;99.90;;;;;;4959662;28;91722;-73
2022/09/23 06:24:01;;;;;;;12.50;11.07;;;11.40;99.90;;;;;;4975875;28;93392;-73
2022/09/23 06:26:32;;;;;;;11.65;10.57;;;11.50;99.90;;;;;;4974968;28;95571;-73
2022/09/23 06:29:00;;;;;;;11.90;10.82;;;11.60;99.90;;;;;;4975144;28;94860;-73
2022/09/23 06:31:27;;;;;;;12.65;11.45;;;11.70;99.90;;;;;;4991524;28;92534;-73
2022/09/23 06:33:55;;;;;;;12.18;10.98;;;11.80;99.90;;;;;;4991309;28;95727;-73
2022/09/23 06:36:34;;;;;;;12.20;10.98;;;11.90;99.90;;;;;;4976221;28;93071;-73
2022/09/23 06:39:09;;;;;;;11.55;10.52;;;12.00;99.90;;;;;;4991428;28;92570;-73
2022/09/23 06:41:36;;;;;;;11.77;10.70;;;12.10;99.90;;;;;;4958547;28;92490;-73
2022/09/23 06:44:06;;;;;;;10.70;9.82;;;12.20;99.90;;;;;;4975447;28;93172;-73
2022/09/23 06:46:33;;;;;;;11.20;10.20;;;12.40;99.90;;;;;;4976858;28;93048;-73
2022/09/23 06:49:01;;;;;;;11.75;10.57;;;12.60;99.90;;;;;;4975862;28;92595;-73
2022/09/23 06:51:28;;;;;;;11.60;10.57;;;12.70;99.90;;;;;;4975947;28;92454;-73
2022/09/23 06:53:55;;;;;;;11.20;10.05;;;12.90;99.90;;;;;;4989548;28;98134;-73
2022/09/23 06:56:23;;;;;;;12.13;10.90;;;13.00;99.90;;;;;;4990686;28;100556;-73
2022/09/23 06:58:51;;;;;;;12.60;10.93;;;13.00;99.90;;;;;;4991038;28;92464;-73
2022/09/23 07:01:18;;;;;;;12.15;11.13;;;13.00;99.90;;;;;;4975734;28;92402;-73
2022/09/23 07:03:47;;;;;;;11.73;10.70;;;13.10;99.90;;;;;;4974403;28;93274;-73
2022/09/23 07:06:14;;;;;;;11.30;10.18;;;13.20;99.90;;;;;;4974317;28;95435;-73
2022/09/23 07:08:43;;;;;;;11.52;10.48;;;13.30;99.90;;;;;;4974437;28;92590;-73
2022/09/23 07:11:12;;;;;;;11.98;10.68;;;13.40;99.90;;;;;;4958484;28;91817;-73
2022/09/23 07:13:40;;;;;;;11.48;10.48;;;13.40;99.90;;;;;;4975458;28;93522;-73
2022/09/23 07:16:08;;;;;;;13.18;10.77;;;13.60;99.90;;;;;;4974929;28;94531;-73
2022/09/23 07:18:36;;;;;;;11.30;10.18;;;13.60;99.90;;;;;;4974158;28;94875;-73
2022/09/23 07:21:16;;;;;;;11.30;10.23;;;13.70;99.90;;;;;;4975506;28;92432;-73
2022/09/23 07:23:45;;;;;;;11.90;10.80;;;13.80;99.90;;;;;;4975548;28;93395;-73
2022/09/23 07:26:16;;;;;;;11.73;10.48;;;13.80;99.90;;;;;;4974820;28;93166;-73
2022/09/23 07:28:44;;;;;;;11.85;10.75;;;13.80;99.90;;;;;;4974621;28;92502;-73
2022/09/23 07:31:16;;;;;;;12.15;10.85;;;13.90;99.90;;;;;;4974212;28;92414;-73
2022/09/23 07:33:56;;;;;;;12.23;11.03;;;14.00;99.90;;;;;;4973811;28;93015;-74
2022/09/23 07:36:23;;;;;;;11.43;10.43;;;14.00;99.90;;;;;;4973201;28;101392;-73
2022/09/23 07:38:50;;;;;;;11.50;10.40;;;14.20;99.90;;;;;;4973755;28;92473;-73
2022/09/23 07:41:18;;;;;;;11.73;10.55;;;14.30;99.90;;;;;;4990508;28;92544;-73
2022/09/23 07:43:46;;;;;;;11.55;10.43;;;14.40;99.90;;;;;;4973571;28;95485;-73
2022/09/23 07:46:16;;;;;;;11.02;10.07;;;14.50;99.90;;;;;;4974357;28;95462;-73
2022/09/23 07:48:44;;;;;;;11.40;10.05;;;14.70;99.90;;;;;;4974076;28;92601;-73
2022/09/23 07:51:19;;;;;;;11.60;10.23;;;14.80;99.90;;;;;;4957492;28;92495;-73
2022/09/23 07:53:48;;;;;;;11.07;10.05;;;14.90;99.90;;;;;;4974371;28;93281;-73
2022/09/23 07:56:16;;;;;;;11.80;10.75;;;15.00;99.90;;;;;;4974903;28;93062;-73
2022/09/23 07:58:43;;;;;;;15.93;10.77;;;15.10;99.90;;;;;;4957800;28;92610;-74
2022/09/23 08:01:11;;;;;;;10.95;9.85;;;15.20;99.90;;;;;;4973452;28;91839;-73
2022/09/23 08:03:38;;;;;;;11.93;10.68;;;15.30;99.90;;;;;;4974118;28;93365;-73
2022/09/23 08:06:11;;;;;;;12.48;11.38;;;15.40;99.90;;;;;;4973277;28;92960;-73
2022/09/23 08:08:42;;;;;;;11.30;10.13;;;15.50;99.90;;;;;;4973987;28;94822;-73
2022/09/23 08:11:12;;;;;;;10.55;9.75;;;15.50;99.80;;;;;;4941437;28;92482;-73
2022/09/23 08:13:39;;;;;;;11.80;10.65;;;15.50;99.80;;;;;;4975045;28;93009;-73
2022/09/23 08:16:06;;;;;;;12.95;11.75;;;15.60;99.60;;;;;;4989825;28;93065;-73
2022/09/23 08:18:33;;;;;;;12.18;11.07;;;15.70;99.50;;;;;;4974186;28;92500;-73
2022/09/23 08:21:00;;;;;;;12.23;11.02;;;15.80;99.30;;;;;;4974871;28;92377;-73
2022/09/23 08:23:32;;;;;;;12.63;11.30;;;15.80;99.30;;;;;;4974095;28;107618;-73
2022/09/23 08:26:01;;;;;;;11.18;10.07;;;15.90;99.20;;;;;;4974937;28;93362;-73
2022/09/23 08:28:28;;;;;;;11.00;9.73;;;15.90;99.30;;;;;;4989917;28;92391;-73
2022/09/23 08:30:55;;;;;;;13.38;12.02;;;15.90;99.50;;;;;;4957505;28;92799;-73
2022/09/23 08:33:22;;;;;;;13.75;12.45;;;15.90;99.20;;;;;;4988330;28;95923;-73
2022/09/23 08:35:50;;;;;;;13.75;12.07;;;15.90;99.30;;;;;;4973026;28;97859;-73
2022/09/23 08:38:18;;;;;;;12.50;11.30;;;15.90;99.30;;;;;;4974578;28;92369;-73
2022/09/23 08:40:48;;;;;;;12.40;11.10;;;16.00;99.20;;;;;;4974518;28;92475;-73
2022/09/23 08:43:25;;;;;;;11.25;10.18;;;15.90;99.40;;;;;;4989170;28;94226;-74
2022/09/23 08:45:54;;;;;;;11.85;10.75;;;15.90;99.20;;;;;;4974264;28;93127;-73
2022/09/23 08:48:32;;;;;;;12.73;10.93;;;15.90;99.40;;;;;;4974146;28;92912;-73
2022/09/23 08:51:29;;;;;;;10.80;9.90;;;16.00;99.40;;;;;;4973687;28;91775;-73
2022/09/23 08:53:57;;;;;;;11.60;10.60;;;16.10;99.60;;;;;;4956934;28;95722;-73
2022/09/23 08:56:24;;;;;;;11.63;10.52;;;16.00;99.70;;;;;;4972630;28;95542;-73
2022/09/23 08:59:21;;;;;;;12.27;11.07;;;16.00;99.70;;;;;;4973443;28;94834;-74
2022/09/23 09:01:54;;;;;;;12.55;11.35;;;16.10;99.70;;;;;;4974615;28;92469;-73
2022/09/23 09:04:43;;;;;;;12.40;11.20;;;16.10;99.60;;;;;;4974876;28;93181;-73
2022/09/23 09:07:17;;;;;;;12.10;10.82;;;16.20;99.50;;;;;;4977449;28;93241;-73
2022/09/23 09:10:22;;;;;;;13.02;11.68;;;16.30;99.50;;;;;;4977520;28;92460;-73
2022/09/23 09:13:02;;;;;;;12.52;11.32;;;16.40;99.40;;;;;;4977715;28;92482;-73
2022/09/23 09:15:29;;;;;;;12.88;11.20;;;16.50;99.40;;;;;;4976006;28;96391;-73
2022/09/23 09:18:06;;;;;;;13.70;9.93;;;16.60;99.30;;;;;;4976292;28;93170;-73
2022/09/23 09:20:39;;;;;;;12.05;10.82;;;16.70;99.00;;;;;;4978063;28;92522;-73
2022/09/23 09:23:21;;;;;;;12.60;11.30;;;16.70;99.10;;;;;;4992561;28;92485;-73
2022/09/23 09:26:00;;;;;;;13.13;11.82;;;16.80;98.80;;;;;;4975845;28;95561;-73
2022/09/23 09:28:39;;;;;;;12.70;11.40;;;16.90;99.00;;;;;;4976987;28;94317;-73
2022/09/23 09:31:29;;;;;;;13.90;11.30;;;17.20;98.80;;;;;;4977482;28;92420;-73
2022/09/23 09:34:21;;;;;;;11.27;9.98;;;17.30;98.40;;;;;;4969373;28;92611;-73
2022/09/23 09:37:06;;;;;;;11.68;10.57;;;17.40;97.90;;;;;;4992188;28;94349;-73
2022/09/23 09:39:34;;;;;;;13.15;11.75;;;17.50;98.10;;;;;;4992241;28;95726;-73
2022/09/23 09:42:03;;;;;;;11.07;9.98;;;17.50;98.10;;;;;;4976998;28;92460;-73
2022/09/23 09:45:01;;;;;;;12.55;11.35;;;17.60;98.10;;;;;;4977301;28;91696;-73
2022/09/23 09:47:47;;;;;;;11.60;10.02;;;17.70;97.90;;;;;;4974964;28;93306;-74
2022/09/23 09:50:42;;;;;;;11.23;10.27;;;17.70;97.40;;;;;;4991745;28;95875;-73
2022/09/23 09:53:15;;;;;;;11.52;10.35;;;17.90;97.40;;;;;;4975594;28;94910;-73
2022/09/23 09:55:43;;;;;;;10.33;9.37;;;18.00;97.30;;;;;;4977026;28;92523;-73
2022/09/23 09:58:15;;;;;;;11.30;10.07;;;18.10;97.00;;;;;;4977077;28;93322;-73
2022/09/23 10:00:44;;;;;;;10.95;9.95;;;18.30;96.70;;;;;;4976585;28;93264;-73
2022/09/23 10:03:20;;;;;;;11.35;10.25;;;18.20;96.00;;;;;;4977151;28;92467;-74
2022/09/23 10:05:53;;;;;;;10.05;9.20;;;18.30;96.30;;;;;;4976984;28;94173;-73
2022/09/23 10:08:36;;;;;;;12.93;11.75;;;18.40;96.20;;;;;;4976780;28;92531;-74
2022/09/23 10:11:10;;;;;;;11.07;10.07;;;18.60;95.80;;;;;;4977081;28;93171;-73
2022/09/23 10:13:36;;;;;;;10.40;9.45;;;18.70;95.90;;;;;;4991970;28;92433;-74
2022/09/23 10:16:04;;;;;;;14.23;10.48;;;18.90;95.60;;;;;;4975949;28;92433;-73
2022/09/23 10:18:46;;;;;;;10.35;9.27;;;19.10;95.20;;;;;;4948339;28;109647;-74
2022/09/23 10:21:16;;;;;;;10.35;9.38;;;19.30;95.00;;;;;;4937611;28;95527;-73
2022/09/23 10:24:00;;;;;;;10.35;9.35;;;19.30;94.60;;;;;;4938023;28;92446;-73
2022/09/23 10:26:31;;;;;;;;;;;19.50;94.60;;;;;;4952334;28;92552;-73
2022/09/23 10:29:01;;;;;;;9.82;8.73;;;19.30;94.60;;;;;;4937277;28;95792;-74
2022/09/23 10:31:31;;;;;;;10.35;9.38;;;19.30;94.50;;;;;;4952576;28;92850;-74
2022/09/23 10:34:00;;;;;;;10.23;8.77;;;19.30;94.40;;;;;;4936304;28;92418;-73
2022/09/23 10:36:30;;;;;;;9.02;8.23;;;19.40;94.00;;;;;;4936527;28;91689;-73
2022/09/23 10:48:02;;;;;;;11.77;10.98;;;19.70;93.50;;;;;;4937619;28;92487;-73
2022/09/23 10:51:03;;;;;;;10.48;8.90;;;19.70;93.50;;;;;;4936857;28;93357;-74
2022/09/23 10:53:57;;;;;;;9.05;8.25;;;19.70;93.30;;;;;;4937289;28;93025;-74
2022/09/23 10:56:44;;;;;;;;;;;19.70;93.20;;;;;;4938068;28;92505;-74
2022/09/23 10:59:35;;;;;;;9.43;8.48;;;19.50;93.60;;;;;;4937192;28;92985;-74
2022/09/23 11:02:33;;;;;;;14.73;8.23;;;19.60;93.60;;;;;;4936100;28;95890;-73
2022/09/23 11:05:24;;;;;;;11.98;10.25;;;19.80;93.60;;;;;;4952399;28;93176;-74
2022/09/23 11:08:17;;;;;;;32.35;29.50;;;19.90;93.20;;;;;;4952021;28;92421;-74
2022/09/23 11:11:10;;;;;;;29.75;25.27;;;20.00;93.30;;;;;;4951411;28;92558;-74
2022/09/23 11:13:52;;;;;;;10.40;9.38;;;20.10;93.20;;;;;;4933725;28;96786;-73
2022/09/23 11:16:44;;;;;;;13.70;12.52;;;20.20;93.30;;;;;;4936956;28;95454;-73
2022/09/23 11:19:42;;;;;;;12.27;11.15;;;20.20;92.60;;;;;;4969772;28;92575;-73
2022/09/23 11:22:23;;;;;;;47.47;42.65;;;20.20;92.70;;;;;;4990392;28;92450;-72
2022/09/23 11:24:59;;;;;;;26.05;23.38;;;20.20;92.90;;;;;;4975642;28;93310;-72
2022/09/23 11:28:07;;;;;;;11.73;10.50;;;20.20;92.90;;;;;;4975200;28;93196;-72
2022/09/23 11:31:13;;;;;;;20.20;18.17;;;20.30;92.60;;;;;;4990202;28;92486;-72
2022/09/23 11:33:46;;;;;;;17.90;14.45;;;20.20;92.70;;;;;;4963731;28;91831;-72
2022/09/23 11:36:32;;;;;;;33.47;23.50;;;20.20;92.90;;;;;;4975400;28;93179;-72
2022/09/23 11:39:07;;;;;;;13.13;11.60;;;20.30;93.00;;;;;;4973563;28;95876;-72
2022/09/23 11:41:38;;;;;;;14.30;11.23;;;20.30;93.20;;;;;;4974483;28;95269;-72
2022/09/23 11:44:15;;;;;;;9.63;7.68;;;20.40;92.50;;;;;;4975627;28;93070;-72
2022/09/23 11:46:48;;;;;;;9.50;8.45;;;20.50;91.90;;;;;;4975542;28;93404;-72
2022/09/23 11:49:52;;;;;;;9.43;7.65;;;20.50;91.70;;;;;;4975723;28;92806;-72
2022/09/23 11:52:44;;;;;;;19.05;14.55;;;20.60;91.40;;;;;;4974490;28;92572;-72
2022/09/23 11:55:23;;;;;;;275.35;136.55;;;20.60;91.20;;;;;;4968628;28;92493;-72
2022/09/23 11:57:56;;;;;;;118.45;71.75;;;20.50;91.30;;;;;;4973094;28;93263;-72
2022/09/23 12:00:26;;;;;;;14.07;12.57;;;20.50;91.30;;;;;;4974140;28;95755;-72
2022/09/23 12:03:28;;;;;;;10.00;8.77;;;20.50;91.30;;;;;;4974079;28;92501;-72
2022/09/23 12:06:32;;;;;;;14.27;13.10;;;20.50;91.40;;;;;;4939364;28;92502;-72
2022/09/23 12:09:06;;;;;;;12.55;11.55;;;20.50;91.70;;;;;;4973665;28;95689;-72
2022/09/23 12:11:37;;;;;;;13.02;11.80;;;20.40;91.30;;;;;;4974912;28;95468;-72
2022/09/23 12:14:24;;;;;;;9.93;8.35;;;20.30;91.60;;;;;;4975293;28;92792;-72
2022/09/23 12:17:05;;;;;;;10.23;9.23;;;20.40;91.40;;;;;;4990746;28;92375;-72
2022/09/23 12:19:45;;;;;;;10.13;9.13;;;20.30;91.60;;;;;;4974077;28;93015;-72
2022/09/23 12:22:40;;;;;;;11.07;10.07;;;20.20;91.50;;;;;;4975484;28;93003;-72
2022/09/23 12:25:45;;;;;;;11.07;8.98;;;20.20;91.30;;;;;;4990253;28;92550;-72
2022/09/23 12:28:18;;;;;;;12.82;11.73;;;20.10;91.50;;;;;;4973493;28;91749;-72
2022/09/23 12:30:46;;;;;;;16.48;15.18;;;20.00;91.80;;;;;;4972908;28;99803;-72
2022/09/23 12:33:25;;;;;;;13.13;11.93;;;19.90;91.80;;;;;;4973136;28;93124;-72
2022/09/23 12:36:02;;;;;;;13.65;12.43;;;20.00;91.90;;;;;;4988858;28;94889;-72
2022/09/23 12:38:29;;;;;;;11.75;10.55;;;20.00;92.30;;;;;;4990118;28;92452;-72
2022/09/23 12:40:56;;;;;;;16.00;14.90;;;20.00;92.20;;;;;;4977292;28;93481;-72
2022/09/23 12:43:33;;;;;;;9.68;8.57;;;20.10;92.30;;;;;;4976370;28;95892;-72
2022/09/23 12:46:18;;;;;;;12.23;11.02;;;20.10;92.30;;;;;;4978742;28;92381;-72
2022/09/23 12:49:07;;;;;;;11.48;10.30;;;20.20;92.00;;;;;;4978255;28;93009;-72
2022/09/23 12:51:35;;;;;;;10.18;9.40;;;20.20;92.40;;;;;;4976340;28;93405;-72
2022/09/23 12:54:02;;;;;;;43.80;40.42;;;20.30;92.30;;;;;;4977560;28;92967;-72
2022/09/23 12:56:35;;;;;;;13.07;9.70;;;20.30;92.10;;;;;;4978094;28;92350;-72
2022/09/23 12:59:24;;;;;;;10.77;9.63;;;20.40;91.90;;;;;;4978517;28;92512;-72
2022/09/23 13:01:53;;;;;;;10.80;9.80;;;20.50;92.10;;;;;;4975748;28;95697;-72
2022/09/23 13:07:34;;;;;;;33.65;30.60;;;20.60;91.70;;;;;;4967697;28;92487;-72
2022/09/23 13:10:14;;;;;;;10.63;9.52;;;20.50;91.60;;;;;;4960120;28;92551;-72
2022/09/23 13:12:43;;;;;;;12.95;11.65;;;20.50;91.20;;;;;;4977810;28;93725;-72
2022/09/23 13:15:34;;;;;;;12.27;11.13;;;20.50;91.10;;;;;;4959838;28;95546;-72
2022/09/23 13:18:20;;;;;;;10.77;9.77;;;20.60;90.90;;;;;;4977576;28;92580;-72
2022/09/23 13:20:52;;;;;;;17.13;15.52;;;20.70;90.70;;;;;;4978355;28;91797;-72
2022/09/23 13:23:21;;;;;;;14.98;12.52;;;20.70;90.80;;;;;;4977097;28;92525;-72
2022/09/23 13:25:50;;;;;;;8.88;7.97;;;20.70;90.90;;;;;;4991630;28;106778;-72
2022/09/23 13:28:30;;;;;;;8.90;8.00;;;20.70;91.00;;;;;;4975625;28;95315;-72
2022/09/23 13:31:01;;;;;;;9.68;8.75;;;20.90;90.90;;;;;;4976693;28;92533;-72